sensor_id;sensor_type;location;lat;lon;timestamp;pressure;altitude;pressure_sealevel;temperature;humidity
62462;BME280;48511;38.664;-9.202;2023-02-17T00:00:05;49909.63;;;-146.63;49.49
62462;BME280;48511;38.664;-9.202;2023-02-17T00:02:07;49880.03;;;-146.63;49.28
62462;BME280;48511;38.664;-9.202;2023-02-17T00:04:07;49947.13;;;-146.63;49.44
62462;BME280;48511;38.664;-9.202;2023-02-17T00:06:10;49899.75;;;-146.63;49.19
62462;BME280;48511;38.664;-9.202;2023-02-17T00:08:11;49917.53;;;-146.63;49.03
62462;BME280;48511;38.664;-9.202;2023-02-17T00:10:11;49929.38;;;-146.63;49.10
62462;BME280;48511;38.664;-9.202;2023-02-17T00:12:12;49911.59;;;-146.63;49.16
62462;BME280;48511;38.664;-9.202;2023-02-17T00:14:13;49933.31;;;-146.63;49.00
62462;BME280;48511;38.664;-9.202;2023-02-17T00:16:21;49929.38;;;-146.63;49.18
62462;BME280;48511;38.664;-9.202;2023-02-17T00:18:22;49893.84;;;-146.63;49.09
62462;BME280;48511;38.664;-9.202;2023-02-17T00:20:23;49885.94;;;-146.63;49.37
62462;BME280;48511;38.664;-9.202;2023-02-17T00:22:24;49901.75;;;-146.63;49.09
62462;BME280;48511;38.664;-9.202;2023-02-17T00:24:27;49923.44;;;-146.63;49.22
62462;BME280;48511;38.664;-9.202;2023-02-17T00:26:28;49911.59;;;-146.63;49.03
62462;BME280;48511;38.664;-9.202;2023-02-17T00:28:29;49885.94;;;-146.63;49.10
62462;BME280;48511;38.664;-9.202;2023-02-17T00:30:30;49913.59;;;-146.63;48.99
62462;BME280;48511;38.664;-9.202;2023-02-17T00:32:31;49870.16;;;-146.63;49.03
62462;BME280;48511;38.664;-9.202;2023-02-17T00:34:31;49933.31;;;-146.63;49.17
62462;BME280;48511;38.664;-9.202;2023-02-17T00:36:33;49901.75;;;-146.63;49.18
62462;BME280;48511;38.664;-9.202;2023-02-17T00:38:33;49939.25;;;-146.63;49.03
62462;BME280;48511;38.664;-9.202;2023-02-17T00:40:34;49913.59;;;-146.63;49.23
62462;BME280;48511;38.664;-9.202;2023-02-17T00:42:35;49893.84;;;-146.63;49.39
62462;BME280;48511;38.664;-9.202;2023-02-17T00:44:36;49911.59;;;-146.63;49.38
62462;BME280;48511;38.664;-9.202;2023-02-17T00:46:37;49905.69;;;-146.63;49.36
62462;BME280;48511;38.664;-9.202;2023-02-17T00:48:38;49878.06;;;-146.63;49.10
62462;BME280;48511;38.664;-9.202;2023-02-17T00:50:38;49868.19;;;-146.63;49.17
62462;BME280;48511;38.664;-9.202;2023-02-17T00:52:39;49874.09;;;-146.63;49.10
62462;BME280;48511;38.664;-9.202;2023-02-17T00:54:41;49913.59;;;-146.63;49.05
62462;BME280;48511;38.664;-9.202;2023-02-17T00:56:43;49882.00;;;-146.63;49.00
62462;BME280;48511;38.664;-9.202;2023-02-17T00:58:44;49909.63;;;-146.63;49.21
62462;BME280;48511;38.664;-9.202;2023-02-17T01:00:46;49856.34;;;-146.63;49.31
62462;BME280;48511;38.664;-9.202;2023-02-17T01:02:47;49882.00;;;-146.63;49.37
62462;BME280;48511;38.664;-9.202;2023-02-17T01:04:48;49895.81;;;-146.63;49.60
62462;BME280;48511;38.664;-9.202;2023-02-17T01:06:48;49929.38;;;-146.63;49.64
62462;BME280;48511;38.664;-9.202;2023-02-17T01:08:49;49941.22;;;-146.63;49.84
62462;BME280;48511;38.664;-9.202;2023-02-17T01:10:51;49919.50;;;-146.63;49.93
62462;BME280;48511;38.664;-9.202;2023-02-17T01:12:52;49929.38;;;-146.63;49.95
62462;BME280;48511;38.664;-9.202;2023-02-17T01:14:55;49907.66;;;-146.63;49.54
62462;BME280;48511;38.664;-9.202;2023-02-17T01:16:57;49921.47;;;-146.63;49.82
62462;BME280;48511;38.664;-9.202;2023-02-17T01:18:58;49921.47;;;-146.63;49.55
62462;BME280;48511;38.664;-9.202;2023-02-17T01:20:59;49889.91;;;-146.63;49.39
62462;BME280;48511;38.664;-9.202;2023-02-17T01:22:59;49941.22;;;-146.63;49.53
62462;BME280;48511;38.664;-9.202;2023-02-17T01:25:00;49889.91;;;-146.63;49.52
62462;BME280;48511;38.664;-9.202;2023-02-17T01:27:02;49887.91;;;-146.63;49.50
62462;BME280;48511;38.664;-9.202;2023-02-17T01:29:03;49901.75;;;-146.63;49.30
62462;BME280;48511;38.664;-9.202;2023-02-17T01:31:06;49883.97;;;-146.63;49.30
62462;BME280;48511;38.664;-9.202;2023-02-17T01:33:07;49917.53;;;-146.63;49.45
62462;BME280;48511;38.664;-9.202;2023-02-17T01:35:08;49893.84;;;-146.63;49.87
62462;BME280;48511;38.664;-9.202;2023-02-17T01:37:09;49919.50;;;-146.63;49.95
62462;BME280;48511;38.664;-9.202;2023-02-17T01:39:12;49885.94;;;-146.63;49.98
62462;BME280;48511;38.664;-9.202;2023-02-17T01:41:15;49899.75;;;-146.63;50.27
62462;BME280;48511;38.664;-9.202;2023-02-17T01:43:17;49929.38;;;-146.63;50.60
62462;BME280;48511;38.664;-9.202;2023-02-17T01:47:18;49909.63;;;-146.63;50.61
62462;BME280;48511;38.664;-9.202;2023-02-17T01:49:29;49917.53;;;-146.63;50.30
62462;BME280;48511;38.664;-9.202;2023-02-17T01:51:33;49925.41;;;-146.63;50.48
62462;BME280;48511;38.664;-9.202;2023-02-17T01:53:43;49880.03;;;-146.63;50.66
62462;BME280;48511;38.664;-9.202;2023-02-17T01:55:47;49941.22;;;-146.63;50.71
62462;BME280;48511;38.664;-9.202;2023-02-17T01:57:50;49919.50;;;-146.63;50.78
62462;BME280;48511;38.664;-9.202;2023-02-17T01:59:52;49923.44;;;-146.63;50.88
62462;BME280;48511;38.664;-9.202;2023-02-17T02:01:57;49878.06;;;-146.63;51.13
62462;BME280;48511;38.664;-9.202;2023-02-17T02:03:59;49905.69;;;-146.63;51.23
62462;BME280;48511;38.664;-9.202;2023-02-17T02:06:05;49858.31;;;-146.63;51.25
62462;BME280;48511;38.664;-9.202;2023-02-17T02:08:08;49901.75;;;-146.63;51.65
62462;BME280;48511;38.664;-9.202;2023-02-17T02:10:11;49893.84;;;-146.63;51.40
62462;BME280;48511;38.664;-9.202;2023-02-17T02:12:27;49887.91;;;-146.63;51.31
62462;BME280;48511;38.664;-9.202;2023-02-17T02:14:28;49903.72;;;-146.63;51.15
62462;BME280;48511;38.664;-9.202;2023-02-17T02:40:13;49911.59;;;-146.63;51.83
62462;BME280;48511;38.664;-9.202;2023-02-17T02:42:19;49913.59;;;-146.63;51.59
62462;BME280;48511;38.664;-9.202;2023-02-17T02:44:21;49923.44;;;-146.63;51.71
62462;BME280;48511;38.664;-9.202;2023-02-17T02:46:22;49901.75;;;-146.63;51.89
62462;BME280;48511;38.664;-9.202;2023-02-17T02:48:23;49925.41;;;-146.63;52.03
62462;BME280;48511;38.664;-9.202;2023-02-17T02:55:46;49893.84;;;-146.63;51.57
62462;BME280;48511;38.664;-9.202;2023-02-17T02:58:05;49901.75;;;-146.63;51.69
62462;BME280;48511;38.664;-9.202;2023-02-17T03:02:31;49903.72;;;-146.63;52.26
62462;BME280;48511;38.664;-9.202;2023-02-17T03:04:44;49899.75;;;-146.63;52.35
62462;BME280;48511;38.664;-9.202;2023-02-17T03:06:52;49923.44;;;-146.63;52.39
62462;BME280;48511;38.664;-9.202;2023-02-17T03:09:08;49905.69;;;-146.63;52.38
62462;BME280;48511;38.664;-9.202;2023-02-17T03:11:11;49925.41;;;-146.63;52.18
62462;BME280;48511;38.664;-9.202;2023-02-17T03:13:12;49882.00;;;-146.63;52.38
62462;BME280;48511;38.664;-9.202;2023-02-17T03:15:25;49921.47;;;-146.63;52.40
62462;BME280;48511;38.664;-9.202;2023-02-17T03:17:32;49905.69;;;-146.63;52.30
62462;BME280;48511;38.664;-9.202;2023-02-17T03:19:33;49907.66;;;-146.63;52.36
62462;BME280;48511;38.664;-9.202;2023-02-17T03:21:41;49885.94;;;-146.63;52.12
62462;BME280;48511;38.664;-9.202;2023-02-17T03:23:43;49966.88;;;-146.63;52.26
62462;BME280;48511;38.664;-9.202;2023-02-17T03:25:44;49893.84;;;-146.63;52.35
62462;BME280;48511;38.664;-9.202;2023-02-17T03:27:44;49905.69;;;-146.63;52.20
62462;BME280;48511;38.664;-9.202;2023-02-17T03:29:47;49899.75;;;-146.63;52.20
62462;BME280;48511;38.664;-9.202;2023-02-17T03:31:47;49923.44;;;-146.63;52.42
62462;BME280;48511;38.664;-9.202;2023-02-17T03:33:48;49882.00;;;-146.63;52.11
62462;BME280;48511;38.664;-9.202;2023-02-17T03:35:49;49931.34;;;-146.63;52.10
62462;BME280;48511;38.664;-9.202;2023-02-17T03:37:50;49885.94;;;-146.63;52.45
62462;BME280;48511;38.664;-9.202;2023-02-17T03:39:51;49915.56;;;-146.63;52.41
62462;BME280;48511;38.664;-9.202;2023-02-17T03:41:52;49923.44;;;-146.63;52.60
62462;BME280;48511;38.664;-9.202;2023-02-17T03:43:52;49951.09;;;-146.63;52.78
62462;BME280;48511;38.664;-9.202;2023-02-17T03:45:53;49885.94;;;-146.63;52.31
62462;BME280;48511;38.664;-9.202;2023-02-17T03:47:54;49917.53;;;-146.63;52.23
62462;BME280;48511;38.664;-9.202;2023-02-17T03:49:55;49919.50;;;-146.63;52.30
62462;BME280;48511;38.664;-9.202;2023-02-17T03:51:55;49929.38;;;-146.63;52.24
62462;BME280;48511;38.664;-9.202;2023-02-17T03:53:57;49921.47;;;-146.63;51.98
62462;BME280;48511;38.664;-9.202;2023-02-17T03:55:58;49885.94;;;-146.63;51.81
62462;BME280;48511;38.664;-9.202;2023-02-17T03:57:59;49929.38;;;-146.63;51.57
62462;BME280;48511;38.664;-9.202;2023-02-17T03:59:59;49909.63;;;-146.63;51.37
62462;BME280;48511;38.664;-9.202;2023-02-17T04:02:00;49874.09;;;-146.63;51.34
62462;BME280;48511;38.664;-9.202;2023-02-17T04:04:01;49870.16;;;-146.63;51.43
62462;BME280;48511;38.664;-9.202;2023-02-17T04:06:01;49889.91;;;-146.63;51.68
62462;BME280;48511;38.664;-9.202;2023-02-17T04:08:02;49899.75;;;-146.63;51.62
62462;BME280;48511;38.664;-9.202;2023-02-17T04:10:03;49889.91;;;-146.63;51.69
62462;BME280;48511;38.664;-9.202;2023-02-17T04:12:04;49905.69;;;-146.63;51.66
62462;BME280;48511;38.664;-9.202;2023-02-17T04:14:05;49911.59;;;-146.63;51.06
62462;BME280;48511;38.664;-9.202;2023-02-17T04:16:08;49913.59;;;-146.63;51.16
62462;BME280;48511;38.664;-9.202;2023-02-17T04:18:09;49893.84;;;-146.63;51.29
62462;BME280;48511;38.664;-9.202;2023-02-17T04:20:10;49907.66;;;-146.63;51.21
62462;BME280;48511;38.664;-9.202;2023-02-17T04:22:11;49887.91;;;-146.63;51.41
62462;BME280;48511;38.664;-9.202;2023-02-17T04:24:11;49943.19;;;-146.63;51.30
62462;BME280;48511;38.664;-9.202;2023-02-17T04:26:12;49911.59;;;-146.63;51.72
62462;BME280;48511;38.664;-9.202;2023-02-17T04:28:15;49937.25;;;-146.63;52.03
62462;BME280;48511;38.664;-9.202;2023-02-17T04:30:16;49905.69;;;-146.63;52.03
62462;BME280;48511;38.664;-9.202;2023-02-17T04:32:17;49909.63;;;-146.63;51.95
62462;BME280;48511;38.664;-9.202;2023-02-17T04:34:17;49893.84;;;-146.63;51.83
62462;BME280;48511;38.664;-9.202;2023-02-17T04:36:19;49905.69;;;-146.63;51.64
62462;BME280;48511;38.664;-9.202;2023-02-17T04:38:19;49862.25;;;-146.63;51.65
62462;BME280;48511;38.664;-9.202;2023-02-17T04:40:21;49891.88;;;-146.63;51.74
62462;BME280;48511;38.664;-9.202;2023-02-17T04:42:22;49889.91;;;-146.63;51.43
62462;BME280;48511;38.664;-9.202;2023-02-17T04:44:22;49885.94;;;-146.63;50.47
62462;BME280;48511;38.664;-9.202;2023-02-17T04:46:23;49911.59;;;-146.63;50.65
62462;BME280;48511;38.664;-9.202;2023-02-17T04:48:24;49917.53;;;-146.63;50.85
62462;BME280;48511;38.664;-9.202;2023-02-17T04:50:25;49882.00;;;-146.63;50.59
62462;BME280;48511;38.664;-9.202;2023-02-17T04:52:26;49882.00;;;-146.63;50.49
62462;BME280;48511;38.664;-9.202;2023-02-17T04:54:27;49897.78;;;-146.63;51.08
62462;BME280;48511;38.664;-9.202;2023-02-17T04:56:27;49870.16;;;-146.63;51.53
62462;BME280;48511;38.664;-9.202;2023-02-17T04:58:28;49917.53;;;-146.63;51.43
62462;BME280;48511;38.664;-9.202;2023-02-17T05:00:29;49864.25;;;-146.63;51.10
62462;BME280;48511;38.664;-9.202;2023-02-17T05:02:30;49893.84;;;-146.63;51.17
62462;BME280;48511;38.664;-9.202;2023-02-17T05:04:31;49945.16;;;-146.63;50.88
62462;BME280;48511;38.664;-9.202;2023-02-17T05:06:32;49901.75;;;-146.63;50.67
62462;BME280;48511;38.664;-9.202;2023-02-17T05:08:32;49925.41;;;-146.63;50.86
62462;BME280;48511;38.664;-9.202;2023-02-17T05:10:33;49870.16;;;-146.63;50.45
62462;BME280;48511;38.664;-9.202;2023-02-17T05:12:34;49925.41;;;-146.63;50.56
62462;BME280;48511;38.664;-9.202;2023-02-17T05:14:35;49921.47;;;-146.63;50.61
62462;BME280;48511;38.664;-9.202;2023-02-17T05:16:36;49921.47;;;-146.63;50.78
62462;BME280;48511;38.664;-9.202;2023-02-17T05:18:36;49901.75;;;-146.63;51.10
62462;BME280;48511;38.664;-9.202;2023-02-17T05:20:37;49889.91;;;-146.63;51.04
62462;BME280;48511;38.664;-9.202;2023-02-17T05:22:38;49889.91;;;-146.63;50.71
62462;BME280;48511;38.664;-9.202;2023-02-17T05:24:38;49919.50;;;-146.63;50.59
62462;BME280;48511;38.664;-9.202;2023-02-17T05:26:39;49929.38;;;-146.63;51.02
62462;BME280;48511;38.664;-9.202;2023-02-17T05:28:40;49905.69;;;-146.63;51.29
62462;BME280;48511;38.664;-9.202;2023-02-17T05:30:41;49882.00;;;-146.63;51.60
62462;BME280;48511;38.664;-9.202;2023-02-17T05:32:41;49905.69;;;-146.63;51.23
62462;BME280;48511;38.664;-9.202;2023-02-17T05:34:42;49917.53;;;-146.63;51.31
62462;BME280;48511;38.664;-9.202;2023-02-17T05:36:43;49885.94;;;-146.63;51.05
62462;BME280;48511;38.664;-9.202;2023-02-17T05:38:44;49909.63;;;-146.63;51.19
62462;BME280;48511;38.664;-9.202;2023-02-17T05:40:49;49878.06;;;-146.63;51.06
62462;BME280;48511;38.664;-9.202;2023-02-17T05:42:50;49889.91;;;-146.63;51.20
62462;BME280;48511;38.664;-9.202;2023-02-17T05:44:50;49921.47;;;-146.63;51.26
62462;BME280;48511;38.664;-9.202;2023-02-17T05:46:51;49917.53;;;-146.63;51.43
62462;BME280;48511;38.664;-9.202;2023-02-17T05:48:52;49901.75;;;-146.63;51.10
62462;BME280;48511;38.664;-9.202;2023-02-17T05:50:52;49901.75;;;-146.63;51.23
62462;BME280;48511;38.664;-9.202;2023-02-17T05:52:53;49878.06;;;-146.63;51.11
62462;BME280;48511;38.664;-9.202;2023-02-17T05:54:54;49891.88;;;-146.63;51.05
62462;BME280;48511;38.664;-9.202;2023-02-17T05:56:54;49929.38;;;-146.63;51.29
62462;BME280;48511;38.664;-9.202;2023-02-17T05:58:55;49909.63;;;-146.63;51.17
62462;BME280;48511;38.664;-9.202;2023-02-17T06:00:56;49909.63;;;-146.63;51.11
62462;BME280;48511;38.664;-9.202;2023-02-17T06:02:57;49917.53;;;-146.63;51.07
62462;BME280;48511;38.664;-9.202;2023-02-17T06:04:57;49903.72;;;-146.63;50.97
62462;BME280;48511;38.664;-9.202;2023-02-17T06:06:58;49905.69;;;-146.63;51.31
62462;BME280;48511;38.664;-9.202;2023-02-17T06:08:59;49915.56;;;-146.63;51.44
62462;BME280;48511;38.664;-9.202;2023-02-17T06:10:59;49905.69;;;-146.63;51.37
62462;BME280;48511;38.664;-9.202;2023-02-17T06:13:00;49895.81;;;-146.63;51.23
62462;BME280;48511;38.664;-9.202;2023-02-17T06:15:01;49909.63;;;-146.63;51.72
62462;BME280;48511;38.664;-9.202;2023-02-17T06:17:02;49929.38;;;-146.63;51.76
62462;BME280;48511;38.664;-9.202;2023-02-17T06:19:03;49929.38;;;-146.63;51.73
62462;BME280;48511;38.664;-9.202;2023-02-17T06:21:04;49909.63;;;-146.63;51.98
62462;BME280;48511;38.664;-9.202;2023-02-17T06:23:05;49913.59;;;-146.63;51.54
62462;BME280;48511;38.664;-9.202;2023-02-17T06:25:06;49885.94;;;-146.63;51.80
62462;BME280;48511;38.664;-9.202;2023-02-17T06:27:07;49915.56;;;-146.63;52.26
62462;BME280;48511;38.664;-9.202;2023-02-17T06:29:07;49921.47;;;-146.63;52.23
62462;BME280;48511;38.664;-9.202;2023-02-17T06:31:08;49909.63;;;-146.63;52.26
62462;BME280;48511;38.664;-9.202;2023-02-17T06:33:09;49909.63;;;-146.63;52.78
62462;BME280;48511;38.664;-9.202;2023-02-17T06:35:10;49941.22;;;-146.63;52.66
62462;BME280;48511;38.664;-9.202;2023-02-17T06:37:10;49868.19;;;-146.63;52.65
62462;BME280;48511;38.664;-9.202;2023-02-17T06:39:11;49911.59;;;-146.63;52.61
62462;BME280;48511;38.664;-9.202;2023-02-17T06:41:12;49905.69;;;-146.63;52.70
62462;BME280;48511;38.664;-9.202;2023-02-17T06:43:13;49917.53;;;-146.63;52.96
62462;BME280;48511;38.664;-9.202;2023-02-17T06:45:13;49883.97;;;-146.63;52.81
62462;BME280;48511;38.664;-9.202;2023-02-17T06:47:14;49913.59;;;-146.63;52.05
62462;BME280;48511;38.664;-9.202;2023-02-17T06:49:15;49868.19;;;-146.63;52.55
62462;BME280;48511;38.664;-9.202;2023-02-17T06:51:16;49911.59;;;-146.63;52.83
62462;BME280;48511;38.664;-9.202;2023-02-17T06:53:16;49878.06;;;-146.63;52.69
62462;BME280;48511;38.664;-9.202;2023-02-17T06:55:18;49885.94;;;-146.63;52.69
62462;BME280;48511;38.664;-9.202;2023-02-17T06:57:19;49901.75;;;-146.63;52.90
62462;BME280;48511;38.664;-9.202;2023-02-17T06:59:20;49893.84;;;-146.63;52.67
62462;BME280;48511;38.664;-9.202;2023-02-17T07:01:25;49893.84;;;-146.63;52.87
62462;BME280;48511;38.664;-9.202;2023-02-17T07:03:26;49885.94;;;-146.63;53.07
62462;BME280;48511;38.664;-9.202;2023-02-17T07:05:27;49913.59;;;-146.63;52.85
62462;BME280;48511;38.664;-9.202;2023-02-17T07:07:28;49909.63;;;-146.63;52.87
62462;BME280;48511;38.664;-9.202;2023-02-17T07:09:29;49901.75;;;-146.63;52.82
62462;BME280;48511;38.664;-9.202;2023-02-17T07:11:29;49891.88;;;-146.63;53.04
62462;BME280;48511;38.664;-9.202;2023-02-17T07:13:32;49901.75;;;-146.63;53.08
62462;BME280;48511;38.664;-9.202;2023-02-17T07:15:33;49913.59;;;-146.63;53.01
62462;BME280;48511;38.664;-9.202;2023-02-17T07:17:34;49905.69;;;-146.63;53.15
62462;BME280;48511;38.664;-9.202;2023-02-17T07:19:35;49876.09;;;-146.63;53.42
62462;BME280;48511;38.664;-9.202;2023-02-17T07:21:35;49905.69;;;-146.63;53.02
62462;BME280;48511;38.664;-9.202;2023-02-17T07:23:36;49913.59;;;-146.63;53.01
62462;BME280;48511;38.664;-9.202;2023-02-17T07:25:38;49917.53;;;-146.63;53.30
62462;BME280;48511;38.664;-9.202;2023-02-17T07:27:40;49913.59;;;-146.63;53.02
62462;BME280;48511;38.664;-9.202;2023-02-17T07:29:41;49907.66;;;-146.63;53.12
62462;BME280;48511;38.664;-9.202;2023-02-17T07:31:41;49891.88;;;-146.63;53.70
62462;BME280;48511;38.664;-9.202;2023-02-17T07:33:43;49878.06;;;-146.63;53.65
62462;BME280;48511;38.664;-9.202;2023-02-17T07:35:45;49889.91;;;-146.63;54.25
62462;BME280;48511;38.664;-9.202;2023-02-17T07:37:45;49899.75;;;-146.63;54.40
62462;BME280;48511;38.664;-9.202;2023-02-17T07:39:47;49917.53;;;-146.63;54.34
62462;BME280;48511;38.664;-9.202;2023-02-17T07:41:48;49885.94;;;-146.63;54.17
62462;BME280;48511;38.664;-9.202;2023-02-17T07:43:53;49903.72;;;-146.63;54.45
62462;BME280;48511;38.664;-9.202;2023-02-17T07:45:55;49889.91;;;-146.63;54.14
62462;BME280;48511;38.664;-9.202;2023-02-17T07:47:56;49878.06;;;-146.63;54.44
62462;BME280;48511;38.664;-9.202;2023-02-17T07:49:56;49923.44;;;-146.63;54.87
62462;BME280;48511;38.664;-9.202;2023-02-17T07:51:57;49895.81;;;-146.63;54.51
62462;BME280;48511;38.664;-9.202;2023-02-17T07:54:00;49889.91;;;-146.63;54.37
62462;BME280;48511;38.664;-9.202;2023-02-17T07:56:05;49903.72;;;-146.63;54.28
62462;BME280;48511;38.664;-9.202;2023-02-17T07:58:06;49897.78;;;-146.63;54.38
62462;BME280;48511;38.664;-9.202;2023-02-17T08:00:07;49905.69;;;-146.63;54.37
62462;BME280;48511;38.664;-9.202;2023-02-17T08:02:13;49913.59;;;-146.63;54.13
62462;BME280;48511;38.664;-9.202;2023-02-17T08:04:14;49901.75;;;-146.63;54.31
62462;BME280;48511;38.664;-9.202;2023-02-17T08:06:23;49901.75;;;-146.63;53.98
62462;BME280;48511;38.664;-9.202;2023-02-17T08:08:24;49883.97;;;-146.63;54.17
62462;BME280;48511;38.664;-9.202;2023-02-17T08:10:44;49882.00;;;-146.63;53.87
62462;BME280;48511;38.664;-9.202;2023-02-17T08:13:03;49917.53;;;-146.63;53.96
62462;BME280;48511;38.664;-9.202;2023-02-17T08:15:19;49909.63;;;-146.63;53.91
62462;BME280;48511;38.664;-9.202;2023-02-17T08:17:20;49897.78;;;-146.63;53.62
62462;BME280;48511;38.664;-9.202;2023-02-17T08:19:21;49876.09;;;-146.63;52.69
62462;BME280;48511;38.664;-9.202;2023-02-17T08:21:23;49860.28;;;-146.63;52.12
62462;BME280;48511;38.664;-9.202;2023-02-17T08:23:25;49933.31;;;-146.63;51.56
62462;BME280;48511;38.664;-9.202;2023-02-17T08:25:26;49901.75;;;-146.63;51.62
62462;BME280;48511;38.664;-9.202;2023-02-17T08:27:27;49887.91;;;-146.63;50.97
62462;BME280;48511;38.664;-9.202;2023-02-17T08:29:28;49925.41;;;-146.63;50.72
62462;BME280;48511;38.664;-9.202;2023-02-17T08:31:33;49905.69;;;-146.63;50.68
62462;BME280;48511;38.664;-9.202;2023-02-17T08:33:39;49917.53;;;-146.63;50.32
62462;BME280;48511;38.664;-9.202;2023-02-17T08:35:39;49905.69;;;-146.63;49.78
62462;BME280;48511;38.664;-9.202;2023-02-17T08:37:40;49927.41;;;-146.63;49.43
62462;BME280;48511;38.664;-9.202;2023-02-17T08:39:41;49893.84;;;-146.63;49.83
62462;BME280;48511;38.664;-9.202;2023-02-17T08:41:45;49901.75;;;-146.63;50.19
62462;BME280;48511;38.664;-9.202;2023-02-17T08:43:46;49909.63;;;-146.63;49.70
62462;BME280;48511;38.664;-9.202;2023-02-17T08:46:06;49903.72;;;-146.63;49.49
62462;BME280;48511;38.664;-9.202;2023-02-17T08:48:07;49905.69;;;-146.63;49.19
62462;BME280;48511;38.664;-9.202;2023-02-17T08:50:10;49889.91;;;-146.63;49.24
62462;BME280;48511;38.664;-9.202;2023-02-17T08:52:15;49885.94;;;-146.63;49.36
62462;BME280;48511;38.664;-9.202;2023-02-17T08:54:18;49889.91;;;-146.63;48.87
62462;BME280;48511;38.664;-9.202;2023-02-17T08:56:22;49885.94;;;-146.63;48.63
62462;BME280;48511;38.664;-9.202;2023-02-17T08:58:24;49907.66;;;-146.63;49.04
62462;BME280;48511;38.664;-9.202;2023-02-17T09:00:25;49842.53;;;-146.63;48.12
62462;BME280;48511;38.664;-9.202;2023-02-17T09:02:25;49905.69;;;-146.63;48.08
62462;BME280;48511;38.664;-9.202;2023-02-17T09:04:29;49883.97;;;-146.63;48.74
62462;BME280;48511;38.664;-9.202;2023-02-17T09:06:35;49915.56;;;-146.63;48.77
62462;BME280;48511;38.664;-9.202;2023-02-17T09:08:39;49887.91;;;-146.63;48.29
62462;BME280;48511;38.664;-9.202;2023-02-17T09:10:40;49897.78;;;-146.63;48.35
62462;BME280;48511;38.664;-9.202;2023-02-17T09:12:41;49905.69;;;-146.63;48.12
62462;BME280;48511;38.664;-9.202;2023-02-17T09:14:42;49893.84;;;-146.63;48.34
62462;BME280;48511;38.664;-9.202;2023-02-17T09:16:42;49907.66;;;-146.63;48.77
62462;BME280;48511;38.664;-9.202;2023-02-17T09:18:43;49878.06;;;-146.63;48.42
62462;BME280;48511;38.664;-9.202;2023-02-17T09:20:44;49862.25;;;-146.63;48.03
62462;BME280;48511;38.664;-9.202;2023-02-17T09:22:45;49905.69;;;-146.63;47.68
62462;BME280;48511;38.664;-9.202;2023-02-17T09:24:45;49933.31;;;-146.63;47.47
62462;BME280;48511;38.664;-9.202;2023-02-17T09:26:46;49929.38;;;-146.63;47.81
62462;BME280;48511;38.664;-9.202;2023-02-17T09:28:47;49885.94;;;-146.63;47.60
62462;BME280;48511;38.664;-9.202;2023-02-17T09:30:48;49915.56;;;-146.63;47.52
62462;BME280;48511;38.664;-9.202;2023-02-17T09:32:49;49878.06;;;-146.63;47.38
62462;BME280;48511;38.664;-9.202;2023-02-17T09:34:50;49889.91;;;-146.63;47.65
62462;BME280;48511;38.664;-9.202;2023-02-17T09:36:50;49893.84;;;-146.63;47.29
62462;BME280;48511;38.664;-9.202;2023-02-17T09:38:52;49897.78;;;-146.63;47.37
62462;BME280;48511;38.664;-9.202;2023-02-17T09:40:53;49889.91;;;-146.63;47.00
62462;BME280;48511;38.664;-9.202;2023-02-17T09:42:53;49878.06;;;-146.63;46.75
62462;BME280;48511;38.664;-9.202;2023-02-17T09:45:10;49917.53;;;-146.63;46.74
62462;BME280;48511;38.664;-9.202;2023-02-17T09:47:19;49925.41;;;-146.63;46.72
62462;BME280;48511;38.664;-9.202;2023-02-17T09:49:27;49915.56;;;-146.63;46.24
62462;BME280;48511;38.664;-9.202;2023-02-17T09:51:34;49874.09;;;-146.63;46.25
62462;BME280;48511;38.664;-9.202;2023-02-17T09:59:10;49913.59;;;-146.63;46.14
62462;BME280;48511;38.664;-9.202;2023-02-17T10:01:32;49882.00;;;-146.63;46.20
62462;BME280;48511;38.664;-9.202;2023-02-17T10:11:13;49882.00;;;-146.63;46.10
62462;BME280;48511;38.664;-9.202;2023-02-17T10:13:31;49891.88;;;-146.63;46.13
62462;BME280;48511;38.664;-9.202;2023-02-17T10:15:53;49889.91;;;-146.63;46.26
62462;BME280;48511;38.664;-9.202;2023-02-17T10:18:50;49913.59;;;-146.63;46.38
62462;BME280;48511;38.664;-9.202;2023-02-17T10:21:01;49864.25;;;-146.63;46.71
62462;BME280;48511;38.664;-9.202;2023-02-17T10:23:29;49880.03;;;-146.63;46.79
62462;BME280;48511;38.664;-9.202;2023-02-17T10:28:21;49927.41;;;-146.63;46.41
62462;BME280;48511;38.664;-9.202;2023-02-17T10:35:16;49921.47;;;-146.63;45.66
62462;BME280;48511;38.664;-9.202;2023-02-17T10:41:47;49891.88;;;-146.63;46.28
62462;BME280;48511;38.664;-9.202;2023-02-17T10:43:49;49905.69;;;-146.63;46.13
62462;BME280;48511;38.664;-9.202;2023-02-17T10:45:50;49913.59;;;-146.63;46.48
62462;BME280;48511;38.664;-9.202;2023-02-17T10:47:58;49921.47;;;-146.63;46.38
62462;BME280;48511;38.664;-9.202;2023-02-17T10:50:02;49899.75;;;-146.63;46.76
62462;BME280;48511;38.664;-9.202;2023-02-17T10:55:02;49885.94;;;-146.63;46.13
62462;BME280;48511;38.664;-9.202;2023-02-17T10:57:08;49905.69;;;-146.63;46.40
62462;BME280;48511;38.664;-9.202;2023-02-17T11:01:21;49889.91;;;-146.63;45.39
62462;BME280;48511;38.664;-9.202;2023-02-17T11:03:27;49927.41;;;-146.63;45.26
62462;BME280;48511;38.664;-9.202;2023-02-17T11:05:35;49921.47;;;-146.63;45.41
62462;BME280;48511;38.664;-9.202;2023-02-17T11:07:41;49891.88;;;-146.63;44.97
62462;BME280;48511;38.664;-9.202;2023-02-17T11:10:02;49880.03;;;-146.63;44.92
62462;BME280;48511;38.664;-9.202;2023-02-17T11:12:28;49933.31;;;-146.63;44.51
62462;BME280;48511;38.664;-9.202;2023-02-17T11:14:53;49905.69;;;-146.63;44.65
62462;BME280;48511;38.664;-9.202;2023-02-17T11:16:57;49889.91;;;-146.63;44.96
62462;BME280;48511;38.664;-9.202;2023-02-17T11:19:03;49889.91;;;-146.63;45.06
62462;BME280;48511;38.664;-9.202;2023-02-17T11:21:07;49880.03;;;-146.63;45.40
62462;BME280;48511;38.664;-9.202;2023-02-17T11:25:24;49899.75;;;-146.63;44.68
62462;BME280;48511;38.664;-9.202;2023-02-17T11:27:25;49939.25;;;-146.63;44.33
62462;BME280;48511;38.664;-9.202;2023-02-17T11:29:27;49909.63;;;-146.63;44.74
62462;BME280;48511;38.664;-9.202;2023-02-17T11:31:30;49927.41;;;-146.63;44.85